sensor_id;sensor_type;location;lat;lon;timestamp;temperature;humidity
7445;DHT22;3764;48.126;11.594;2023-04-30T00:01:00;12.60;99.90
7445;DHT22;3764;48.126;11.594;2023-04-30T00:03:27;12.60;99.90
7445;DHT22;3764;48.126;11.594;2023-04-30T00:05:54;12.60;99.90
7445;DHT22;3764;48.126;11.594;2023-04-30T00:08:21;12.60;99.90
7445;DHT22;3764;48.126;11.594;2023-04-30T00:10:50;12.60;99.90
7445;DHT22;3764;48.126;11.594;2023-04-30T00:13:17;12.60;99.90
7445;DHT22;3764;48.126;11.594;2023-04-30T00:15:44;12.60;99.90
7445;DHT22;3764;48.126;11.594;2023-04-30T00:18:11;12.50;99.90
7445;DHT22;3764;48.126;11.594;2023-04-30T00:20:38;12.60;99.90
7445;DHT22;3764;48.126;11.594;2023-04-30T00:23:06;12.60;99.90
7445;DHT22;3764;48.126;11.594;2023-04-30T00:25:33;12.50;99.90
7445;DHT22;3764;48.126;11.594;2023-04-30T00:28:02;12.50;99.90
7445;DHT22;3764;48.126;11.594;2023-04-30T00:30:30;12.50;99.90
7445;DHT22;3764;48.126;11.594;2023-04-30T00:32:57;12.50;99.90
7445;DHT22;3764;48.126;11.594;2023-04-30T00:35:24;12.50;99.90
7445;DHT22;3764;48.126;11.594;2023-04-30T00:37:51;12.50;99.90
7445;DHT22;3764;48.126;11.594;2023-04-30T00:40:19;12.50;99.90
7445;DHT22;3764;48.126;11.594;2023-04-30T00:42:46;12.50;99.90
7445;DHT22;3764;48.126;11.594;2023-04-30T00:45:15;12.40;99.90
7445;DHT22;3764;48.126;11.594;2023-04-30T00:47:46;12.40;99.90
7445;DHT22;3764;48.126;11.594;2023-04-30T00:50:14;12.40;99.90
7445;DHT22;3764;48.126;11.594;2023-04-30T00:52:41;12.40;99.90
7445;DHT22;3764;48.126;11.594;2023-04-30T00:55:09;12.40;99.90
7445;DHT22;3764;48.126;11.594;2023-04-30T00:57:37;12.40;99.90
7445;DHT22;3764;48.126;11.594;2023-04-30T01:00:06;12.30;99.90
7445;DHT22;3764;48.126;11.594;2023-04-30T01:02:37;12.30;99.90
7445;DHT22;3764;48.126;11.594;2023-04-30T01:05:05;12.30;99.90
7445;DHT22;3764;48.126;11.594;2023-04-30T01:07:34;12.30;99.90
7445;DHT22;3764;48.126;11.594;2023-04-30T01:10:03;12.20;99.90
7445;DHT22;3764;48.126;11.594;2023-04-30T01:12:38;12.20;99.90
7445;DHT22;3764;48.126;11.594;2023-04-30T01:15:13;12.20;99.90
7445;DHT22;3764;48.126;11.594;2023-04-30T01:17:50;12.30;99.90
7445;DHT22;3764;48.126;11.594;2023-04-30T01:20:20;12.10;99.90
7445;DHT22;3764;48.126;11.594;2023-04-30T01:22:53;12.10;99.90
7445;DHT22;3764;48.126;11.594;2023-04-30T01:25:50;12.10;99.90
7445;DHT22;3764;48.126;11.594;2023-04-30T01:28:21;12.10;99.90
7445;DHT22;3764;48.126;11.594;2023-04-30T01:30:49;12.10;99.90
7445;DHT22;3764;48.126;11.594;2023-04-30T01:33:17;12.10;99.90
7445;DHT22;3764;48.126;11.594;2023-04-30T01:39:08;12.00;99.90
7445;DHT22;3764;48.126;11.594;2023-04-30T01:41:42;12.00;99.90
7445;DHT22;3764;48.126;11.594;2023-04-30T01:44:23;12.00;99.90
7445;DHT22;3764;48.126;11.594;2023-04-30T01:47:00;12.00;99.90
7445;DHT22;3764;48.126;11.594;2023-04-30T01:49:39;12.10;99.90
7445;DHT22;3764;48.126;11.594;2023-04-30T01:52:13;12.10;99.90
7445;DHT22;3764;48.126;11.594;2023-04-30T01:54:46;12.10;99.90
7445;DHT22;3764;48.126;11.594;2023-04-30T01:57:19;12.10;99.90
7445;DHT22;3764;48.126;11.594;2023-04-30T01:59:49;12.10;99.90
7445;DHT22;3764;48.126;11.594;2023-04-30T02:02:16;12.10;99.90
7445;DHT22;3764;48.126;11.594;2023-04-30T02:04:43;12.10;99.90
7445;DHT22;3764;48.126;11.594;2023-04-30T02:07:12;12.10;99.90
7445;DHT22;3764;48.126;11.594;2023-04-30T02:09:43;12.10;99.90
7445;DHT22;3764;48.126;11.594;2023-04-30T02:12:10;12.10;99.90
7445;DHT22;3764;48.126;11.594;2023-04-30T02:14:37;12.10;99.90
7445;DHT22;3764;48.126;11.594;2023-04-30T02:17:06;12.00;99.90
7445;DHT22;3764;48.126;11.594;2023-04-30T02:19:33;12.00;99.90
7445;DHT22;3764;48.126;11.594;2023-04-30T02:22:00;12.00;99.90
7445;DHT22;3764;48.126;11.594;2023-04-30T02:24:27;12.00;99.90
7445;DHT22;3764;48.126;11.594;2023-04-30T02:26:54;12.00;99.90
7445;DHT22;3764;48.126;11.594;2023-04-30T02:29:21;12.00;99.90
7445;DHT22;3764;48.126;11.594;2023-04-30T02:31:48;12.00;99.90
7445;DHT22;3764;48.126;11.594;2023-04-30T02:34:17;11.90;99.90
7445;DHT22;3764;48.126;11.594;2023-04-30T02:36:44;11.90;99.90
7445;DHT22;3764;48.126;11.594;2023-04-30T02:39:11;12.00;99.90
7445;DHT22;3764;48.126;11.594;2023-04-30T02:41:38;11.90;99.90
7445;DHT22;3764;48.126;11.594;2023-04-30T02:44:05;11.90;99.90
7445;DHT22;3764;48.126;11.594;2023-04-30T02:46:32;11.90;99.90
7445;DHT22;3764;48.126;11.594;2023-04-30T02:48:59;11.80;99.90
7445;DHT22;3764;48.126;11.594;2023-04-30T02:51:28;11.80;99.90
7445;DHT22;3764;48.126;11.594;2023-04-30T02:53:57;11.80;99.90
7445;DHT22;3764;48.126;11.594;2023-04-30T02:56:24;11.70;99.90
7445;DHT22;3764;48.126;11.594;2023-04-30T02:58:51;11.70;99.90
7445;DHT22;3764;48.126;11.594;2023-04-30T03:01:19;11.70;99.90
7445;DHT22;3764;48.126;11.594;2023-04-30T03:03:46;11.70;99.90
7445;DHT22;3764;48.126;11.594;2023-04-30T03:06:13;11.70;99.90
7445;DHT22;3764;48.126;11.594;2023-04-30T03:08:41;11.70;99.90
7445;DHT22;3764;48.126;11.594;2023-04-30T03:11:09;11.70;99.90
7445;DHT22;3764;48.126;11.594;2023-04-30T03:13:36;11.70;99.90
7445;DHT22;3764;48.126;11.594;2023-04-30T03:16:03;11.70;99.90
7445;DHT22;3764;48.126;11.594;2023-04-30T03:18:31;11.60;99.90
7445;DHT22;3764;48.126;11.594;2023-04-30T03:20:58;11.60;99.90
7445;DHT22;3764;48.126;11.594;2023-04-30T03:23:26;11.60;99.90
7445;DHT22;3764;48.126;11.594;2023-04-30T03:25:55;11.50;99.90
7445;DHT22;3764;48.126;11.594;2023-04-30T03:28:22;11.40;99.90
7445;DHT22;3764;48.126;11.594;2023-04-30T03:30:49;11.50;99.90
7445;DHT22;3764;48.126;11.594;2023-04-30T03:33:16;11.50;99.90
7445;DHT22;3764;48.126;11.594;2023-04-30T03:35:43;11.40;99.90
7445;DHT22;3764;48.126;11.594;2023-04-30T03:38:10;11.50;99.90
7445;DHT22;3764;48.126;11.594;2023-04-30T03:40:37;11.50;99.90
7445;DHT22;3764;48.126;11.594;2023-04-30T03:43:06;11.50;99.90
7445;DHT22;3764;48.126;11.594;2023-04-30T03:45:33;11.50;99.90
7445;DHT22;3764;48.126;11.594;2023-04-30T03:48:01;11.50;99.90
7445;DHT22;3764;48.126;11.594;2023-04-30T03:50:28;11.50;99.90
7445;DHT22;3764;48.126;11.594;2023-04-30T03:52:55;11.40;99.90
7445;DHT22;3764;48.126;11.594;2023-04-30T03:55:22;11.30;99.90
7445;DHT22;3764;48.126;11.594;2023-04-30T03:57:50;11.30;99.90
7445;DHT22;3764;48.126;11.594;2023-04-30T04:00:18;11.30;99.90
7445;DHT22;3764;48.126;11.594;2023-04-30T04:02:45;11.30;99.90
7445;DHT22;3764;48.126;11.594;2023-04-30T04:05:13;11.30;99.90
7445;DHT22;3764;48.126;11.594;2023-04-30T04:07:40;11.30;99.90
7445;DHT22;3764;48.126;11.594;2023-04-30T04:10:07;11.20;99.90
7445;DHT22;3764;48.126;11.594;2023-04-30T04:12:35;11.30;99.90
7445;DHT22;3764;48.126;11.594;2023-04-30T04:15:02;11.30;99.90
7445;DHT22;3764;48.126;11.594;2023-04-30T04:17:30;11.30;99.90
7445;DHT22;3764;48.126;11.594;2023-04-30T04:19:57;11.30;99.90
7445;DHT22;3764;48.126;11.594;2023-04-30T04:22:24;11.30;99.90
7445;DHT22;3764;48.126;11.594;2023-04-30T04:24:51;11.30;99.90
7445;DHT22;3764;48.126;11.594;2023-04-30T04:27:19;11.30;99.90
7445;DHT22;3764;48.126;11.594;2023-04-30T04:29:46;11.20;99.90
7445;DHT22;3764;48.126;11.594;2023-04-30T04:32:13;11.20;99.90
7445;DHT22;3764;48.126;11.594;2023-04-30T04:34:42;11.20;99.90
7445;DHT22;3764;48.126;11.594;2023-04-30T04:37:10;11.20;99.90
7445;DHT22;3764;48.126;11.594;2023-04-30T04:39:37;11.20;99.90
7445;DHT22;3764;48.126;11.594;2023-04-30T04:42:04;11.20;99.90
7445;DHT22;3764;48.126;11.594;2023-04-30T04:44:31;11.20;99.90
7445;DHT22;3764;48.126;11.594;2023-04-30T04:46:58;11.20;99.90
7445;DHT22;3764;48.126;11.594;2023-04-30T04:49:28;11.20;99.90
7445;DHT22;3764;48.126;11.594;2023-04-30T04:51:56;11.20;99.90
7445;DHT22;3764;48.126;11.594;2023-04-30T04:54:23;11.20;99.90
7445;DHT22;3764;48.126;11.594;2023-04-30T04:56:50;11.20;99.90
7445;DHT22;3764;48.126;11.594;2023-04-30T04:59:17;11.20;99.90
7445;DHT22;3764;48.126;11.594;2023-04-30T05:01:44;11.20;99.90
7445;DHT22;3764;48.126;11.594;2023-04-30T05:04:12;11.20;99.90
7445;DHT22;3764;48.126;11.594;2023-04-30T05:06:39;11.20;99.90
7445;DHT22;3764;48.126;11.594;2023-04-30T05:09:08;11.20;99.90
7445;DHT22;3764;48.126;11.594;2023-04-30T05:11:35;11.20;99.90
7445;DHT22;3764;48.126;11.594;2023-04-30T05:14:02;11.20;99.90
7445;DHT22;3764;48.126;11.594;2023-04-30T05:16:29;11.20;99.90
7445;DHT22;3764;48.126;11.594;2023-04-30T05:18:56;11.20;99.90
7445;DHT22;3764;48.126;11.594;2023-04-30T05:21:24;11.10;99.90
7445;DHT22;3764;48.126;11.594;2023-04-30T05:23:54;11.10;99.90
7445;DHT22;3764;48.126;11.594;2023-04-30T05:26:23;11.10;99.90
7445;DHT22;3764;48.126;11.594;2023-04-30T05:28:50;11.10;99.90
7445;DHT22;3764;48.126;11.594;2023-04-30T05:31:17;11.10;99.90
7445;DHT22;3764;48.126;11.594;2023-04-30T05:33:44;11.10;99.90
7445;DHT22;3764;48.126;11.594;2023-04-30T05:36:11;11.10;99.90
7445;DHT22;3764;48.126;11.594;2023-04-30T05:38:38;11.10;99.90
7445;DHT22;3764;48.126;11.594;2023-04-30T05:41:05;11.10;99.90
7445;DHT22;3764;48.126;11.594;2023-04-30T05:43:34;11.10;99.90
7445;DHT22;3764;48.126;11.594;2023-04-30T05:46:01;11.10;99.90
7445;DHT22;3764;48.126;11.594;2023-04-30T05:48:28;11.10;99.90
7445;DHT22;3764;48.126;11.594;2023-04-30T05:50:55;11.10;99.90
7445;DHT22;3764;48.126;11.594;2023-04-30T05:53:23;11.10;99.90
7445;DHT22;3764;48.126;11.594;2023-04-30T05:55:50;11.10;99.90
7445;DHT22;3764;48.126;11.594;2023-04-30T05:58:17;11.20;99.90
7445;DHT22;3764;48.126;11.594;2023-04-30T06:00:48;11.20;99.90
7445;DHT22;3764;48.126;11.594;2023-04-30T06:03:15;11.20;99.90
7445;DHT22;3764;48.126;11.594;2023-04-30T06:05:43;11.10;99.90
7445;DHT22;3764;48.126;11.594;2023-04-30T06:08:10;11.10;99.90
7445;DHT22;3764;48.126;11.594;2023-04-30T06:10:37;11.20;99.90
7445;DHT22;3764;48.126;11.594;2023-04-30T06:13:05;11.20;99.90
7445;DHT22;3764;48.126;11.594;2023-04-30T06:15:32;11.10;99.90
7445;DHT22;3764;48.126;11.594;2023-04-30T06:18:01;11.10;99.90
7445;DHT22;3764;48.126;11.594;2023-04-30T06:20:28;11.20;99.90
7445;DHT22;3764;48.126;11.594;2023-04-30T06:22:55;11.20;99.90
7445;DHT22;3764;48.126;11.594;2023-04-30T06:25:22;11.30;99.90
7445;DHT22;3764;48.126;11.594;2023-04-30T06:27:49;11.30;99.90
7445;DHT22;3764;48.126;11.594;2023-04-30T06:30:18;11.30;99.90
7445;DHT22;3764;48.126;11.594;2023-04-30T06:32:45;11.40;99.90
7445;DHT22;3764;48.126;11.594;2023-04-30T06:35:14;11.40;99.90
7445;DHT22;3764;48.126;11.594;2023-04-30T06:37:41;11.50;99.90
7445;DHT22;3764;48.126;11.594;2023-04-30T06:40:08;11.50;99.90
7445;DHT22;3764;48.126;11.594;2023-04-30T06:42:35;11.50;99.90
7445;DHT22;3764;48.126;11.594;2023-04-30T06:45:04;11.50;99.90
7445;DHT22;3764;48.126;11.594;2023-04-30T06:47:31;11.60;99.90
7445;DHT22;3764;48.126;11.594;2023-04-30T06:49:59;11.60;99.90
7445;DHT22;3764;48.126;11.594;2023-04-30T06:52:27;11.60;99.90
7445;DHT22;3764;48.126;11.594;2023-04-30T06:54:54;11.60;99.90
7445;DHT22;3764;48.126;11.594;2023-04-30T06:57:21;11.60;99.90
7445;DHT22;3764;48.126;11.594;2023-04-30T06:59:49;11.70;99.90
7445;DHT22;3764;48.126;11.594;2023-04-30T07:02:16;11.70;99.90
7445;DHT22;3764;48.126;11.594;2023-04-30T07:04:43;11.70;99.90
7445;DHT22;3764;48.126;11.594;2023-04-30T07:07:10;11.80;99.90
7445;DHT22;3764;48.126;11.594;2023-04-30T07:09:38;11.80;99.90
7445;DHT22;3764;48.126;11.594;2023-04-30T07:12:06;11.80;99.90
7445;DHT22;3764;48.126;11.594;2023-04-30T07:14:33;11.80;99.90
7445;DHT22;3764;48.126;11.594;2023-04-30T07:17:00;11.80;99.90
7445;DHT22;3764;48.126;11.594;2023-04-30T07:19:27;11.90;99.90
7445;DHT22;3764;48.126;11.594;2023-04-30T07:21:54;11.90;99.90
7445;DHT22;3764;48.126;11.594;2023-04-30T07:24:21;11.90;99.90
7445;DHT22;3764;48.126;11.594;2023-04-30T07:26:50;12.00;99.90
7445;DHT22;3764;48.126;11.594;2023-04-30T07:29:17;12.10;99.90
7445;DHT22;3764;48.126;11.594;2023-04-30T07:31:44;12.20;99.90
7445;DHT22;3764;48.126;11.594;2023-04-30T07:34:11;12.40;99.90
7445;DHT22;3764;48.126;11.594;2023-04-30T07:36:38;12.50;99.90
7445;DHT22;3764;48.126;11.594;2023-04-30T07:39:05;12.60;99.90
7445;DHT22;3764;48.126;11.594;2023-04-30T07:41:33;12.70;99.90
7445;DHT22;3764;48.126;11.594;2023-04-30T07:44:01;12.80;99.90
7445;DHT22;3764;48.126;11.594;2023-04-30T07:46:28;12.90;99.90
7445;DHT22;3764;48.126;11.594;2023-04-30T07:48:55;12.90;99.90
7445;DHT22;3764;48.126;11.594;2023-04-30T07:51:22;13.00;99.90
7445;DHT22;3764;48.126;11.594;2023-04-30T07:53:50;13.10;99.90
7445;DHT22;3764;48.126;11.594;2023-04-30T07:56:17;13.10;99.90
7445;DHT22;3764;48.126;11.594;2023-04-30T07:58:44;13.20;99.90
7445;DHT22;3764;48.126;11.594;2023-04-30T08:01:13;13.20;99.90
7445;DHT22;3764;48.126;11.594;2023-04-30T08:03:41;13.20;99.90
7445;DHT22;3764;48.126;11.594;2023-04-30T08:06:08;13.30;99.90
7445;DHT22;3764;48.126;11.594;2023-04-30T08:08:35;13.30;99.90
7445;DHT22;3764;48.126;11.594;2023-04-30T08:11:02;13.40;99.90
7445;DHT22;3764;48.126;11.594;2023-04-30T08:13:30;13.40;99.90
7445;DHT22;3764;48.126;11.594;2023-04-30T08:15:57;13.40;99.90
7445;DHT22;3764;48.126;11.594;2023-04-30T08:18:25;13.40;99.90
7445;DHT22;3764;48.126;11.594;2023-04-30T08:20:52;13.50;99.90
7445;DHT22;3764;48.126;11.594;2023-04-30T08:23:19;13.50;99.90
7445;DHT22;3764;48.126;11.594;2023-04-30T08:25:46;13.50;99.90
7445;DHT22;3764;48.126;11.594;2023-04-30T08:28:14;13.50;99.90
7445;DHT22;3764;48.126;11.594;2023-04-30T08:30:41;13.60;99.90
7445;DHT22;3764;48.126;11.594;2023-04-30T08:33:08;13.60;99.90
7445;DHT22;3764;48.126;11.594;2023-04-30T08:35:36;13.70;99.90
7445;DHT22;3764;48.126;11.594;2023-04-30T08:38:03;13.70;99.90
7445;DHT22;3764;48.126;11.594;2023-04-30T08:40:34;13.70;99.90
7445;DHT22;3764;48.126;11.594;2023-04-30T08:43:04;13.70;99.90
7445;DHT22;3764;48.126;11.594;2023-04-30T08:45:32;13.70;99.90
7445;DHT22;3764;48.126;11.594;2023-04-30T08:48:00;13.70;99.90
7445;DHT22;3764;48.126;11.594;2023-04-30T08:50:27;13.60;99.90
7445;DHT22;3764;48.126;11.594;2023-04-30T08:52:56;13.50;99.90
7445;DHT22;3764;48.126;11.594;2023-04-30T08:55:25;13.50;99.90
7445;DHT22;3764;48.126;11.594;2023-04-30T08:57:52;13.50;99.90
7445;DHT22;3764;48.126;11.594;2023-04-30T09:00:20;13.50;99.90
7445;DHT22;3764;48.126;11.594;2023-04-30T09:02:47;13.60;99.90
7445;DHT22;3764;48.126;11.594;2023-04-30T09:05:15;13.50;99.90
7445;DHT22;3764;48.126;11.594;2023-04-30T09:07:43;13.50;99.90
7445;DHT22;3764;48.126;11.594;2023-04-30T09:10:16;13.60;99.90
7445;DHT22;3764;48.126;11.594;2023-04-30T09:12:43;13.60;99.90
7445;DHT22;3764;48.126;11.594;2023-04-30T09:15:11;13.60;99.90
7445;DHT22;3764;48.126;11.594;2023-04-30T09:17:38;13.60;99.90
7445;DHT22;3764;48.126;11.594;2023-04-30T09:20:07;13.70;99.90
7445;DHT22;3764;48.126;11.594;2023-04-30T09:22:35;13.70;99.90
7445;DHT22;3764;48.126;11.594;2023-04-30T09:25:02;13.70;99.90
7445;DHT22;3764;48.126;11.594;2023-04-30T09:27:31;13.70;99.90
7445;DHT22;3764;48.126;11.594;2023-04-30T09:29:58;13.70;99.90
7445;DHT22;3764;48.126;11.594;2023-04-30T09:32:25;13.70;99.90
7445;DHT22;3764;48.126;11.594;2023-04-30T09:34:52;13.70;99.90
7445;DHT22;3764;48.126;11.594;2023-04-30T09:37:19;13.80;99.90
7445;DHT22;3764;48.126;11.594;2023-04-30T09:39:50;13.70;99.90
7445;DHT22;3764;48.126;11.594;2023-04-30T09:42:18;13.60;99.90
7445;DHT22;3764;48.126;11.594;2023-04-30T09:44:47;13.60;99.90
7445;DHT22;3764;48.126;11.594;2023-04-30T09:47:15;13.60;99.90
7445;DHT22;3764;48.126;11.594;2023-04-30T09:49:43;13.60;99.90
7445;DHT22;3764;48.126;11.594;2023-04-30T09:52:10;13.60;99.90
7445;DHT22;3764;48.126;11.594;2023-04-30T09:54:38;13.60;99.90
7445;DHT22;3764;48.126;11.594;2023-04-30T09:57:09;13.50;99.90
7445;DHT22;3764;48.126;11.594;2023-04-30T09:59:37;13.50;99.90
7445;DHT22;3764;48.126;11.594;2023-04-30T10:02:07;13.50;99.90
7445;DHT22;3764;48.126;11.594;2023-04-30T10:04:35;13.60;99.90
7445;DHT22;3764;48.126;11.594;2023-04-30T10:07:06;13.70;99.90
7445;DHT22;3764;48.126;11.594;2023-04-30T10:09:38;13.70;99.90
7445;DHT22;3764;48.126;11.594;2023-04-30T10:12:12;13.70;99.90
7445;DHT22;3764;48.126;11.594;2023-04-30T10:14:43;13.70;99.90
7445;DHT22;3764;48.126;11.594;2023-04-30T10:17:15;13.80;99.90
7445;DHT22;3764;48.126;11.594;2023-04-30T10:19:47;13.70;99.90
7445;DHT22;3764;48.126;11.594;2023-04-30T10:22:15;13.70;99.90
7445;DHT22;3764;48.126;11.594;2023-04-30T10:24:43;13.80;99.90
7445;DHT22;3764;48.126;11.594;2023-04-30T10:27:11;13.80;99.90
7445;DHT22;3764;48.126;11.594;2023-04-30T10:29:39;13.80;99.90
7445;DHT22;3764;48.126;11.594;2023-04-30T10:32:06;13.90;99.90
7445;DHT22;3764;48.126;11.594;2023-04-30T10:34:44;14.00;99.90
7445;DHT22;3764;48.126;11.594;2023-04-30T10:37:19;14.00;99.90
7445;DHT22;3764;48.126;11.594;2023-04-30T10:39:49;14.00;99.90
7445;DHT22;3764;48.126;11.594;2023-04-30T10:42:16;14.10;99.90
7445;DHT22;3764;48.126;11.594;2023-04-30T10:44:43;14.10;99.90
7445;DHT22;3764;48.126;11.594;2023-04-30T10:47:11;14.10;99.90
7445;DHT22;3764;48.126;11.594;2023-04-30T10:49:44;14.20;99.90
7445;DHT22;3764;48.126;11.594;2023-04-30T10:52:12;14.30;99.90
7445;DHT22;3764;48.126;11.594;2023-04-30T10:54:48;14.30;99.90
7445;DHT22;3764;48.126;11.594;2023-04-30T10:57:17;14.30;99.90
7445;DHT22;3764;48.126;11.594;2023-04-30T10:59:51;14.30;99.90
7445;DHT22;3764;48.126;11.594;2023-04-30T11:02:19;14.40;99.90
7445;DHT22;3764;48.126;11.594;2023-04-30T11:05:10;14.40;99.90
7445;DHT22;3764;48.126;11.594;2023-04-30T11:07:49;14.40;99.90
7445;DHT22;3764;48.126;11.594;2023-04-30T11:10:20;14.50;99.90
7445;DHT22;3764;48.126;11.594;2023-04-30T11:12:49;14.50;99.90
7445;DHT22;3764;48.126;11.594;2023-04-30T11:15:17;14.60;99.90
7445;DHT22;3764;48.126;11.594;2023-04-30T11:17:46;14.70;99.90
7445;DHT22;3764;48.126;11.594;2023-04-30T11:20:22;14.80;99.90
7445;DHT22;3764;48.126;11.594;2023-04-30T11:23:08;15.00;99.90
7445;DHT22;3764;48.126;11.594;2023-04-30T11:25:39;15.10;99.90
7445;DHT22;3764;48.126;11.594;2023-04-30T11:28:07;15.10;99.90
7445;DHT22;3764;48.126;11.594;2023-04-30T11:30:35;15.10;99.90
7445;DHT22;3764;48.126;11.594;2023-04-30T11:33:02;15.10;99.90
7445;DHT22;3764;48.126;11.594;2023-04-30T11:35:32;15.10;99.90
7445;DHT22;3764;48.126;11.594;2023-04-30T11:38:01;15.10;99.90
7445;DHT22;3764;48.126;11.594;2023-04-30T11:40:34;15.20;99.90
7445;DHT22;3764;48.126;11.594;2023-04-30T11:43:01;15.20;99.90
7445;DHT22;3764;48.126;11.594;2023-04-30T11:45:29;15.20;99.90
7445;DHT22;3764;48.126;11.594;2023-04-30T11:47:56;15.20;99.90
7445;DHT22;3764;48.126;11.594;2023-04-30T11:50:24;15.20;99.90
7445;DHT22;3764;48.126;11.594;2023-04-30T11:52:56;15.20;99.90
7445;DHT22;3764;48.126;11.594;2023-04-30T11:55:25;15.10;99.90
7445;DHT22;3764;48.126;11.594;2023-04-30T11:57:54;15.00;99.90
7445;DHT22;3764;48.126;11.594;2023-04-30T12:00:24;15.00;99.90
7445;DHT22;3764;48.126;11.594;2023-04-30T12:02:52;15.00;99.90
7445;DHT22;3764;48.126;11.594;2023-04-30T12:05:21;15.00;99.90
7445;DHT22;3764;48.126;11.594;2023-04-30T12:07:49;15.00;99.90
7445;DHT22;3764;48.126;11.594;2023-04-30T12:10:19;15.00;99.90
7445;DHT22;3764;48.126;11.594;2023-04-30T12:12:47;15.10;99.90
7445;DHT22;3764;48.126;11.594;2023-04-30T12:15:17;15.10;99.90
7445;DHT22;3764;48.126;11.594;2023-04-30T12:17:45;15.10;99.90
7445;DHT22;3764;48.126;11.594;2023-04-30T12:20:13;15.10;99.90
7445;DHT22;3764;48.126;11.594;2023-04-30T12:22:41;15.10;99.90
7445;DHT22;3764;48.126;11.594;2023-04-30T12:25:12;15.10;99.90
7445;DHT22;3764;48.126;11.594;2023-04-30T12:27:45;15.10;99.90
7445;DHT22;3764;48.126;11.594;2023-04-30T12:30:13;15.10;99.90
7445;DHT22;3764;48.126;11.594;2023-04-30T12:32:41;15.10;99.90
7445;DHT22;3764;48.126;11.594;2023-04-30T12:35:13;15.10;99.90
7445;DHT22;3764;48.126;11.594;2023-04-30T12:37:44;15.10;99.90
7445;DHT22;3764;48.126;11.594;2023-04-30T12:40:12;15.10;99.90
7445;DHT22;3764;48.126;11.594;2023-04-30T12:42:42;15.10;99.90
7445;DHT22;3764;48.126;11.594;2023-04-30T12:45:10;15.10;99.90
7445;DHT22;3764;48.126;11.594;2023-04-30T12:47:38;15.10;99.90
7445;DHT22;3764;48.126;11.594;2023-04-30T12:50:09;15.10;99.90
7445;DHT22;3764;48.126;11.594;2023-04-30T12:52:38;15.20;99.90
7445;DHT22;3764;48.126;11.594;2023-04-30T12:55:16;15.40;99.90
7445;DHT22;3764;48.126;11.594;2023-04-30T12:58:03;15.50;99.90
7445;DHT22;3764;48.126;11.594;2023-04-30T13:00:45;15.70;99.90
7445;DHT22;3764;48.126;11.594;2023-04-30T13:03:14;15.90;99.90
7445;DHT22;3764;48.126;11.594;2023-04-30T13:05:41;16.10;99.90
7445;DHT22;3764;48.126;11.594;2023-04-30T13:08:12;16.30;99.90
7445;DHT22;3764;48.126;11.594;2023-04-30T13:10:39;16.40;99.90
7445;DHT22;3764;48.126;11.594;2023-04-30T13:13:08;16.50;99.90
7445;DHT22;3764;48.126;11.594;2023-04-30T13:15:35;16.50;99.90
7445;DHT22;3764;48.126;11.594;2023-04-30T13:18:03;16.50;99.90
7445;DHT22;3764;48.126;11.594;2023-04-30T13:20:31;16.60;99.90
7445;DHT22;3764;48.126;11.594;2023-04-30T13:22:58;16.60;99.90
7445;DHT22;3764;48.126;11.594;2023-04-30T13:25:25;16.60;99.90
7445;DHT22;3764;48.126;11.594;2023-04-30T13:27:52;16.60;99.90
7445;DHT22;3764;48.126;11.594;2023-04-30T13:30:21;16.60;99.90
7445;DHT22;3764;48.126;11.594;2023-04-30T13:32:49;16.70;99.90
7445;DHT22;3764;48.126;11.594;2023-04-30T13:35:16;16.70;99.90
7445;DHT22;3764;48.126;11.594;2023-04-30T13:37:43;16.80;99.90
7445;DHT22;3764;48.126;11.594;2023-04-30T13:40:12;16.90;99.90
7445;DHT22;3764;48.126;11.594;2023-04-30T13:42:40;17.00;99.90
7445;DHT22;3764;48.126;11.594;2023-04-30T13:45:08;17.10;99.90
7445;DHT22;3764;48.126;11.594;2023-04-30T13:47:37;17.20;99.90
7445;DHT22;3764;48.126;11.594;2023-04-30T13:50:05;17.30;99.90
7445;DHT22;3764;48.126;11.594;2023-04-30T13:52:33;17.40;99.90
7445;DHT22;3764;48.126;11.594;2023-04-30T13:55:01;17.50;99.90
7445;DHT22;3764;48.126;11.594;2023-04-30T13:57:29;17.40;99.90
7445;DHT22;3764;48.126;11.594;2023-04-30T13:59:57;17.40;99.90
7445;DHT22;3764;48.126;11.594;2023-04-30T14:02:25;17.40;99.90
7445;DHT22;3764;48.126;11.594;2023-04-30T14:04:54;17.40;99.90
7445;DHT22;3764;48.126;11.594;2023-04-30T14:07:23;17.10;99.90
7445;DHT22;3764;48.126;11.594;2023-04-30T14:09:50;17.10;99.90
7445;DHT22;3764;48.126;11.594;2023-04-30T14:12:17;17.00;99.90
7445;DHT22;3764;48.126;11.594;2023-04-30T14:14:46;17.10;99.90
7445;DHT22;3764;48.126;11.594;2023-04-30T14:17:13;17.10;99.90
7445;DHT22;3764;48.126;11.594;2023-04-30T14:19:40;17.10;99.90
7445;DHT22;3764;48.126;11.594;2023-04-30T14:22:08;17.10;99.90
7445;DHT22;3764;48.126;11.594;2023-04-30T14:24:36;17.10;99.90
7445;DHT22;3764;48.126;11.594;2023-04-30T14:27:03;17.10;99.90
7445;DHT22;3764;48.126;11.594;2023-04-30T14:29:31;17.20;99.90
7445;DHT22;3764;48.126;11.594;2023-04-30T14:31:58;17.30;99.90
7445;DHT22;3764;48.126;11.594;2023-04-30T14:34:26;17.30;99.90
7445;DHT22;3764;48.126;11.594;2023-04-30T14:36:53;17.40;99.90
7445;DHT22;3764;48.126;11.594;2023-04-30T14:39:22;17.50;99.90
7445;DHT22;3764;48.126;11.594;2023-04-30T14:41:49;17.50;99.90
7445;DHT22;3764;48.126;11.594;2023-04-30T14:44:16;17.60;99.90
7445;DHT22;3764;48.126;11.594;2023-04-30T14:46:43;17.60;99.90
7445;DHT22;3764;48.126;11.594;2023-04-30T14:49:10;17.60;99.90
7445;DHT22;3764;48.126;11.594;2023-04-30T14:51:37;17.50;99.90
7445;DHT22;3764;48.126;11.594;2023-04-30T14:54:04;17.50;99.90
7445;DHT22;3764;48.126;11.594;2023-04-30T14:56:33;17.40;99.90
7445;DHT22;3764;48.126;11.594;2023-04-30T14:59:00;17.40;99.90
7445;DHT22;3764;48.126;11.594;2023-04-30T15:01:27;17.30;99.90
7445;DHT22;3764;48.126;11.594;2023-04-30T15:03:55;17.30;99.90
7445;DHT22;3764;48.126;11.594;2023-04-30T15:06:22;17.30;99.90
7445;DHT22;3764;48.126;11.594;2023-04-30T15:08:49;17.40;99.90
7445;DHT22;3764;48.126;11.594;2023-04-30T15:11:16;17.40;99.90
7445;DHT22;3764;48.126;11.594;2023-04-30T15:13:45;17.50;99.90
7445;DHT22;3764;48.126;11.594;2023-04-30T15:16:12;17.50;99.90
7445;DHT22;3764;48.126;11.594;2023-04-30T15:18:39;17.50;99.90
7445;DHT22;3764;48.126;11.594;2023-04-30T15:21:07;17.40;99.90
7445;DHT22;3764;48.126;11.594;2023-04-30T15:23:34;17.40;99.90
7445;DHT22;3764;48.126;11.594;2023-04-30T15:26:01;17.40;99.90
7445;DHT22;3764;48.126;11.594;2023-04-30T15:28:30;17.50;99.90
7445;DHT22;3764;48.126;11.594;2023-04-30T15:30:58;17.50;99.90
7445;DHT22;3764;48.126;11.594;2023-04-30T15:33:26;17.50;99.90
7445;DHT22;3764;48.126;11.594;2023-04-30T15:35:55;17.50;99.90
7445;DHT22;3764;48.126;11.594;2023-04-30T15:38:22;17.50;99.90
7445;DHT22;3764;48.126;11.594;2023-04-30T15:40:49;17.50;99.90
7445;DHT22;3764;48.126;11.594;2023-04-30T15:43:16;17.50;99.90
7445;DHT22;3764;48.126;11.594;2023-04-30T15:45:43;17.50;99.90
7445;DHT22;3764;48.126;11.594;2023-04-30T15:48:14;17.60;99.90
7445;DHT22;3764;48.126;11.594;2023-04-30T15:50:41;17.60;99.90
7445;DHT22;3764;48.126;11.594;2023-04-30T15:53:08;17.60;99.90
7445;DHT22;3764;48.126;11.594;2023-04-30T15:55:35;17.50;99.90